sensor_id;sensor_type;location;lat;lon;timestamp;pressure;altitude;pressure_sealevel;temperature;humidity
76011;BME280;64701;43.536;1.478;2024-01-30T00:00:27;100840.28;;;11.20;100.00
76011;BME280;64701;43.536;1.478;2024-01-30T00:02:53;100842.13;;;11.19;100.00
76011;BME280;64701;43.536;1.478;2024-01-30T00:05:18;100833.31;;;11.11;100.00
76011;BME280;64701;43.536;1.478;2024-01-30T00:07:43;100845.88;;;11.09;100.00
76011;BME280;64701;43.536;1.478;2024-01-30T00:10:09;100840.56;;;11.09;100.00
76011;BME280;64701;43.536;1.478;2024-01-30T00:12:34;100839.59;;;11.01;100.00
76011;BME280;64701;43.536;1.478;2024-01-30T00:14:59;100830.97;;;10.99;100.00
76011;BME280;64701;43.536;1.478;2024-01-30T00:17:24;100840.09;;;11.05;100.00
76011;BME280;64701;43.536;1.478;2024-01-30T00:19:51;100836.75;;;11.03;100.00
76011;BME280;64701;43.536;1.478;2024-01-30T00:22:17;100832.63;;;11.00;100.00
76011;BME280;64701;43.536;1.478;2024-01-30T00:24:42;100834.63;;;11.07;100.00
76011;BME280;64701;43.536;1.478;2024-01-30T00:27:07;100830.31;;;11.05;100.00
76011;BME280;64701;43.536;1.478;2024-01-30T00:29:33;100827.34;;;11.00;100.00
76011;BME280;64701;43.536;1.478;2024-01-30T00:31:59;100820.69;;;10.96;100.00
76011;BME280;64701;43.536;1.478;2024-01-30T00:34:24;100819.03;;;10.95;100.00
76011;BME280;64701;43.536;1.478;2024-01-30T00:36:49;100812.41;;;10.99;100.00
76011;BME280;64701;43.536;1.478;2024-01-30T00:39:14;100811.44;;;11.00;100.00
76011;BME280;64701;43.536;1.478;2024-01-30T00:41:40;100812.38;;;10.91;100.00
76011;BME280;64701;43.536;1.478;2024-01-30T00:44:06;100820.19;;;10.93;100.00
76011;BME280;64701;43.536;1.478;2024-01-30T00:46:31;100822.34;;;10.97;100.00
76011;BME280;64701;43.536;1.478;2024-01-30T00:48:56;100820.00;;;10.86;100.00
76011;BME280;64701;43.536;1.478;2024-01-30T00:51:22;100825.31;;;10.94;100.00
76011;BME280;64701;43.536;1.478;2024-01-30T00:53:47;100821.16;;;10.92;100.00
76011;BME280;64701;43.536;1.478;2024-01-30T00:56:12;100818.69;;;10.98;100.00
76011;BME280;64701;43.536;1.478;2024-01-30T00:58:38;100827.31;;;10.92;100.00
76011;BME280;64701;43.536;1.478;2024-01-30T01:01:03;100823.47;;;10.87;100.00
76011;BME280;64701;43.536;1.478;2024-01-30T01:03:28;100822.50;;;10.88;100.00
76011;BME280;64701;43.536;1.478;2024-01-30T01:05:54;100819.84;;;10.88;100.00
76011;BME280;64701;43.536;1.478;2024-01-30T01:08:19;100822.97;;;10.91;100.00
76011;BME280;64701;43.536;1.478;2024-01-30T01:10:45;100821.84;;;10.94;100.00
76011;BME280;64701;43.536;1.478;2024-01-30T01:13:10;100817.38;;;10.94;100.00
76011;BME280;64701;43.536;1.478;2024-01-30T01:15:35;100813.75;;;10.95;100.00
76011;BME280;64701;43.536;1.478;2024-01-30T01:18:01;100820.69;;;10.96;100.00
76011;BME280;64701;43.536;1.478;2024-01-30T01:20:26;100823.50;;;10.95;100.00
76011;BME280;64701;43.536;1.478;2024-01-30T01:22:51;100825.97;;;10.96;100.00
76011;BME280;64701;43.536;1.478;2024-01-30T01:25:17;100827.81;;;10.96;100.00
76011;BME280;64701;43.536;1.478;2024-01-30T01:27:43;100831.63;;;10.93;100.00
76011;BME280;64701;43.536;1.478;2024-01-30T01:30:09;100831.63;;;10.93;100.00
76011;BME280;64701;43.536;1.478;2024-01-30T01:32:35;100831.28;;;10.96;100.00
76011;BME280;64701;43.536;1.478;2024-01-30T01:35:01;100830.81;;;11.01;100.00
76011;BME280;64701;43.536;1.478;2024-01-30T01:37:27;100826.16;;;11.03;100.00
76011;BME280;64701;43.536;1.478;2024-01-30T01:39:52;100832.28;;;11.03;100.00
76011;BME280;64701;43.536;1.478;2024-01-30T01:42:17;100836.28;;;10.99;100.00
76011;BME280;64701;43.536;1.478;2024-01-30T01:44:43;100836.09;;;10.93;100.00
76011;BME280;64701;43.536;1.478;2024-01-30T01:47:08;100837.41;;;10.97;100.00
76011;BME280;64701;43.536;1.478;2024-01-30T01:49:33;100842.06;;;10.95;100.00
76011;BME280;64701;43.536;1.478;2024-01-30T01:51:59;100847.53;;;11.01;100.00
76011;BME280;64701;43.536;1.478;2024-01-30T01:54:25;100847.19;;;10.96;100.00
76011;BME280;64701;43.536;1.478;2024-01-30T01:56:50;100850.19;;;11.01;100.00
76011;BME280;64701;43.536;1.478;2024-01-30T01:59:16;100844.22;;;10.99;100.00
76011;BME280;64701;43.536;1.478;2024-01-30T02:01:42;100842.72;;;10.97;100.00
76011;BME280;64701;43.536;1.478;2024-01-30T02:04:08;100836.91;;;10.93;100.00
76011;BME280;64701;43.536;1.478;2024-01-30T02:06:33;100832.94;;;10.97;100.00
76011;BME280;64701;43.536;1.478;2024-01-30T02:08:59;100830.97;;;10.99;100.00
76011;BME280;64701;43.536;1.478;2024-01-30T02:11:24;100833.28;;;10.94;100.00
76011;BME280;64701;43.536;1.478;2024-01-30T02:13:50;100825.31;;;10.94;100.00
76011;BME280;64701;43.536;1.478;2024-01-30T02:16:15;100836.75;;;10.95;100.00
76011;BME280;64701;43.536;1.478;2024-01-30T02:18:42;100830.28;;;10.89;100.00
76011;BME280;64701;43.536;1.478;2024-01-30T02:21:10;100831.28;;;10.96;100.00
76011;BME280;64701;43.536;1.478;2024-01-30T02:23:35;100829.47;;;10.97;100.00
76011;BME280;64701;43.536;1.478;2024-01-30T02:26:01;100836.13;;;11.01;100.00
76011;BME280;64701;43.536;1.478;2024-01-30T02:28:26;100839.91;;;10.98;100.00
76011;BME280;64701;43.536;1.478;2024-01-30T02:30:54;100834.28;;;11.01;100.00
76011;BME280;64701;43.536;1.478;2024-01-30T02:33:20;100833.28;;;10.94;100.00
76011;BME280;64701;43.536;1.478;2024-01-30T02:35:47;100838.28;;;11.05;100.00
76011;BME280;64701;43.536;1.478;2024-01-30T02:38:12;100837.59;;;11.03;100.00
76011;BME280;64701;43.536;1.478;2024-01-30T02:40:37;100837.59;;;11.03;100.00
76011;BME280;64701;43.536;1.478;2024-01-30T02:43:03;100842.06;;;11.03;100.00
76011;BME280;64701;43.536;1.478;2024-01-30T02:45:28;100839.94;;;11.07;100.00
76011;BME280;64701;43.536;1.478;2024-01-30T02:47:53;100839.59;;;11.01;100.00
76011;BME280;64701;43.536;1.478;2024-01-30T02:50:19;100843.88;;;11.02;100.00
76011;BME280;64701;43.536;1.478;2024-01-30T02:52:44;100846.22;;;11.05;100.00
76011;BME280;64701;43.536;1.478;2024-01-30T02:55:09;100839.59;;;11.01;100.00
76011;BME280;64701;43.536;1.478;2024-01-30T02:57:35;100839.91;;;10.98;100.00
76011;BME280;64701;43.536;1.478;2024-01-30T03:00:00;100838.56;;;10.94;100.00
76011;BME280;64701;43.536;1.478;2024-01-30T03:02:26;100838.56;;;11.02;100.00
76011;BME280;64701;43.536;1.478;2024-01-30T03:04:51;100832.28;;;11.03;100.00
76011;BME280;64701;43.536;1.478;2024-01-30T03:07:16;100835.94;;;11.02;100.00
76011;BME280;64701;43.536;1.478;2024-01-30T03:09:42;100841.09;;;11.12;100.00
76011;BME280;64701;43.536;1.478;2024-01-30T03:12:10;100836.13;;;11.09;100.00
76011;BME280;64701;43.536;1.478;2024-01-30T03:14:35;100831.00;;;11.08;100.00
76011;BME280;64701;43.536;1.478;2024-01-30T03:17:00;100835.66;;;11.14;100.00
76011;BME280;64701;43.536;1.478;2024-01-30T03:19:25;100835.28;;;11.00;100.00
76011;BME280;64701;43.536;1.478;2024-01-30T03:21:51;100841.22;;;11.02;100.00
76011;BME280;64701;43.536;1.478;2024-01-30T03:24:16;100841.75;;;11.06;100.00
76011;BME280;64701;43.536;1.478;2024-01-30T03:26:42;100840.56;;;11.09;100.00
76011;BME280;64701;43.536;1.478;2024-01-30T03:29:07;100836.13;;;11.09;100.00
76011;BME280;64701;43.536;1.478;2024-01-30T03:31:32;100839.63;;;11.18;100.00
76011;BME280;64701;43.536;1.478;2024-01-30T03:33:58;100843.22;;;11.09;100.00
76011;BME280;64701;43.536;1.478;2024-01-30T03:36:23;100838.59;;;11.11;100.00
76011;BME280;64701;43.536;1.478;2024-01-30T03:38:48;100850.53;;;11.15;100.00
76011;BME280;64701;43.536;1.478;2024-01-30T03:41:14;100843.25;;;11.17;100.00
76011;BME280;64701;43.536;1.478;2024-01-30T03:43:39;100841.41;;;11.09;100.00
76011;BME280;64701;43.536;1.478;2024-01-30T03:46:05;100844.91;;;11.01;100.00
76011;BME280;64701;43.536;1.478;2024-01-30T03:48:30;100841.22;;;11.02;100.00
76011;BME280;64701;43.536;1.478;2024-01-30T03:50:55;100863.75;;;10.98;100.00
76011;BME280;64701;43.536;1.478;2024-01-30T03:53:21;100863.25;;;11.03;100.00
76011;BME280;64701;43.536;1.478;2024-01-30T03:55:47;100858.78;;;11.03;100.00
76011;BME280;64701;43.536;1.478;2024-01-30T03:58:12;100864.44;;;11.00;100.00
76011;BME280;64701;43.536;1.478;2024-01-30T04:00:37;100861.78;;;11.09;100.00
76011;BME280;64701;43.536;1.478;2024-01-30T04:03:03;100863.13;;;11.04;100.00
76011;BME280;64701;43.536;1.478;2024-01-30T04:05:28;100862.13;;;11.05;100.00
76011;BME280;64701;43.536;1.478;2024-01-30T04:07:53;100866.75;;;10.95;100.00
76011;BME280;64701;43.536;1.478;2024-01-30T04:10:19;100867.91;;;11.01;100.00
76011;BME280;64701;43.536;1.478;2024-01-30T04:12:44;100867.25;;;10.99;100.00
76011;BME280;64701;43.536;1.478;2024-01-30T04:15:09;100864.25;;;10.94;100.00
76011;BME280;64701;43.536;1.478;2024-01-30T04:17:35;100873.69;;;10.96;100.00
76011;BME280;64701;43.536;1.478;2024-01-30T04:20:00;100864.94;;;11.04;100.00
76011;BME280;64701;43.536;1.478;2024-01-30T04:22:25;100858.47;;;10.98;100.00
76011;BME280;64701;43.536;1.478;2024-01-30T04:24:50;100855.97;;;10.89;100.00
76011;BME280;64701;43.536;1.478;2024-01-30T04:27:16;100867.56;;;10.96;100.00
76011;BME280;64701;43.536;1.478;2024-01-30T04:29:41;100859.09;;;10.92;100.00
76011;BME280;64701;43.536;1.478;2024-01-30T04:32:09;100851.16;;;10.92;100.00
76011;BME280;64701;43.536;1.478;2024-01-30T04:34:35;100865.19;;;10.85;100.00
76011;BME280;64701;43.536;1.478;2024-01-30T04:37:01;100870.69;;;10.91;100.00
76011;BME280;64701;43.536;1.478;2024-01-30T04:39:26;100869.03;;;10.90;100.00
76011;BME280;64701;43.536;1.478;2024-01-30T04:41:51;100874.31;;;10.90;100.00
76011;BME280;64701;43.536;1.478;2024-01-30T04:44:17;100880.63;;;10.89;100.00
76011;BME280;64701;43.536;1.478;2024-01-30T04:46:42;100885.25;;;10.87;100.00
76011;BME280;64701;43.536;1.478;2024-01-30T04:49:07;100879.63;;;10.90;100.00
76011;BME280;64701;43.536;1.478;2024-01-30T04:51:33;100876.16;;;10.90;100.00
76011;BME280;64701;43.536;1.478;2024-01-30T04:53:58;100883.75;;;10.85;100.00
76011;BME280;64701;43.536;1.478;2024-01-30T04:56:24;100892.84;;;10.82;100.00
76011;BME280;64701;43.536;1.478;2024-01-30T04:58:49;100895.84;;;10.87;100.00
76011;BME280;64701;43.536;1.478;2024-01-30T05:01:15;100900.81;;;10.90;100.00
76011;BME280;64701;43.536;1.478;2024-01-30T05:03:40;100908.78;;;10.90;100.00
76011;BME280;64701;43.536;1.478;2024-01-30T05:06:05;100900.81;;;10.90;100.00
76011;BME280;64701;43.536;1.478;2024-01-30T05:08:31;100900.19;;;10.96;100.00
76011;BME280;64701;43.536;1.478;2024-01-30T05:10:56;100905.47;;;10.96;100.00
76011;BME280;64701;43.536;1.478;2024-01-30T05:13:24;100903.50;;;10.98;100.00
76011;BME280;64701;43.536;1.478;2024-01-30T05:15:50;100905.81;;;10.93;100.00
76011;BME280;64701;43.536;1.478;2024-01-30T05:18:15;100910.78;;;10.96;100.00
76011;BME280;64701;43.536;1.478;2024-01-30T05:20:40;100917.75;;;10.97;100.00
76011;BME280;64701;43.536;1.478;2024-01-30T05:23:05;100916.06;;;10.96;100.00
76011;BME280;64701;43.536;1.478;2024-01-30T05:25:31;100927.00;;;10.93;100.00
76011;BME280;64701;43.536;1.478;2024-01-30T05:27:56;100932.31;;;10.93;100.00
76011;BME280;64701;43.536;1.478;2024-01-30T05:30:21;100935.50;;;11.05;100.00
76011;BME280;64701;43.536;1.478;2024-01-30T05:32:46;100937.66;;;11.01;100.00
76011;BME280;64701;43.536;1.478;2024-01-30T05:35:12;100945.81;;;11.08;100.00
76011;BME280;64701;43.536;1.478;2024-01-30T05:37:37;100941.97;;;11.11;100.00
76011;BME280;64701;43.536;1.478;2024-01-30T05:40:02;100941.31;;;11.09;100.00
76011;BME280;64701;43.536;1.478;2024-01-30T05:42:28;100951.91;;;11.00;100.00
76011;BME280;64701;43.536;1.478;2024-01-30T05:44:53;100942.66;;;11.13;100.00
76011;BME280;64701;43.536;1.478;2024-01-30T05:47:18;100934.03;;;11.11;100.00
76011;BME280;64701;43.536;1.478;2024-01-30T05:49:44;100940.00;;;11.13;100.00
76011;BME280;64701;43.536;1.478;2024-01-30T05:52:09;100935.69;;;11.12;100.00
76011;BME280;64701;43.536;1.478;2024-01-30T05:54:34;100938.19;;;11.13;100.00
76011;BME280;64701;43.536;1.478;2024-01-30T05:57:00;100936.19;;;11.15;100.00
76011;BME280;64701;43.536;1.478;2024-01-30T05:59:25;100933.53;;;11.07;100.00
76011;BME280;64701;43.536;1.478;2024-01-30T06:01:50;100930.69;;;11.09;100.00
76011;BME280;64701;43.536;1.478;2024-01-30T06:04:16;100931.03;;;11.05;100.00
76011;BME280;64701;43.536;1.478;2024-01-30T06:06:41;100937.97;;;10.98;100.00
76011;BME280;64701;43.536;1.478;2024-01-30T06:09:06;100932.19;;;11.03;100.00
76011;BME280;64701;43.536;1.478;2024-01-30T06:11:34;100930.69;;;11.00;100.00
76011;BME280;64701;43.536;1.478;2024-01-30T06:13:59;100930.16;;;10.97;100.00
76011;BME280;64701;43.536;1.478;2024-01-30T06:16:24;100932.81;;;10.97;100.00
76011;BME280;64701;43.536;1.478;2024-01-30T06:18:49;100933.00;;;10.95;100.00
76011;BME280;64701;43.536;1.478;2024-01-30T06:21:15;100944.88;;;10.91;100.00
76011;BME280;64701;43.536;1.478;2024-01-30T06:23:40;100934.91;;;10.85;100.00
76011;BME280;64701;43.536;1.478;2024-01-30T06:26:08;100933.78;;;10.88;100.00
76011;BME280;64701;43.536;1.478;2024-01-30T06:28:33;100946.88;;;10.89;100.00
76011;BME280;64701;43.536;1.478;2024-01-30T06:31:00;100955.19;;;10.94;100.00
76011;BME280;64701;43.536;1.478;2024-01-30T06:33:26;100956.84;;;10.95;100.00
76011;BME280;64701;43.536;1.478;2024-01-30T06:35:51;100953.47;;;10.85;100.00
76011;BME280;64701;43.536;1.478;2024-01-30T06:38:16;100954.81;;;10.89;100.00
76011;BME280;64701;43.536;1.478;2024-01-30T06:40:41;100966.91;;;10.92;100.00
76011;BME280;64701;43.536;1.478;2024-01-30T06:43:07;100971.38;;;10.91;100.00
76011;BME280;64701;43.536;1.478;2024-01-30T06:45:33;100977.00;;;10.88;100.00
76011;BME280;64701;43.536;1.478;2024-01-30T06:47:59;100976.03;;;10.89;100.00
76011;BME280;64701;43.536;1.478;2024-01-30T06:50:24;100977.50;;;10.92;100.00
76011;BME280;64701;43.536;1.478;2024-01-30T06:52:49;100979.03;;;10.94;100.00
76011;BME280;64701;43.536;1.478;2024-01-30T06:55:16;100982.50;;;10.95;100.00
76011;BME280;64701;43.536;1.478;2024-01-30T06:57:41;100981.69;;;11.02;100.00
76011;BME280;64701;43.536;1.478;2024-01-30T07:00:06;100986.16;;;10.94;100.00
76011;BME280;64701;43.536;1.478;2024-01-30T07:02:32;100982.03;;;10.99;100.00
76011;BME280;64701;43.536;1.478;2024-01-30T07:04:57;100991.28;;;10.95;100.00
76011;BME280;64701;43.536;1.478;2024-01-30T07:07:22;100982.38;;;11.04;100.00
76011;BME280;64701;43.536;1.478;2024-01-30T07:09:48;100980.72;;;11.03;100.00
76011;BME280;64701;43.536;1.478;2024-01-30T07:12:14;100985.03;;;11.04;100.00
76011;BME280;64701;43.536;1.478;2024-01-30T07:14:40;100995.53;;;11.14;100.00
76011;BME280;64701;43.536;1.478;2024-01-30T07:17:05;100980.09;;;11.10;100.00
76011;BME280;64701;43.536;1.478;2024-01-30T07:19:31;100991.22;;;11.13;100.00
76011;BME280;64701;43.536;1.478;2024-01-30T07:21:56;100992.16;;;11.04;100.00
76011;BME280;64701;43.536;1.478;2024-01-30T07:24:21;100994.66;;;11.05;100.00
76011;BME280;64701;43.536;1.478;2024-01-30T07:26:46;101009.72;;;11.05;100.00
76011;BME280;64701;43.536;1.478;2024-01-30T07:29:12;101008.59;;;11.08;100.00
76011;BME280;64701;43.536;1.478;2024-01-30T07:31:37;101013.56;;;11.11;100.00
76011;BME280;64701;43.536;1.478;2024-01-30T07:34:02;101003.94;;;11.10;100.00
76011;BME280;64701;43.536;1.478;2024-01-30T07:36:27;101010.84;;;11.02;100.00
76011;BME280;64701;43.536;1.478;2024-01-30T07:38:53;101008.59;;;11.08;100.00
76011;BME280;64701;43.536;1.478;2024-01-30T07:41:19;101009.59;;;11.15;100.00
76011;BME280;64701;43.536;1.478;2024-01-30T07:43:45;101002.91;;;11.02;100.00
76011;BME280;64701;43.536;1.478;2024-01-30T07:46:10;101009.72;;;11.05;100.00
76011;BME280;64701;43.536;1.478;2024-01-30T07:48:35;101009.03;;;11.03;100.00
76011;BME280;64701;43.536;1.478;2024-01-30T07:51:00;101012.56;;;11.12;100.00
76011;BME280;64701;43.536;1.478;2024-01-30T07:53:26;101028.03;;;11.24;100.00
76011;BME280;64701;43.536;1.478;2024-01-30T07:55:52;101022.25;;;11.29;100.00
76011;BME280;64701;43.536;1.478;2024-01-30T07:58:17;101030.84;;;11.23;100.00
76011;BME280;64701;43.536;1.478;2024-01-30T08:00:42;101037.47;;;11.27;100.00
76011;BME280;64701;43.536;1.478;2024-01-30T08:03:07;101039.16;;;11.28;100.00
76011;BME280;64701;43.536;1.478;2024-01-30T08:05:33;101046.63;;;11.32;100.00
76011;BME280;64701;43.536;1.478;2024-01-30T08:07:58;101043.81;;;11.34;100.00
76011;BME280;64701;43.536;1.478;2024-01-30T08:10:23;101051.44;;;11.29;100.00
76011;BME280;64701;43.536;1.478;2024-01-30T08:12:48;101041.88;;;11.44;100.00
76011;BME280;64701;43.536;1.478;2024-01-30T08:15:14;101051.13;;;11.32;100.00
76011;BME280;64701;43.536;1.478;2024-01-30T08:17:39;101047.16;;;11.44;100.00
76011;BME280;64701;43.536;1.478;2024-01-30T08:20:05;101051.03;;;11.50;100.00
76011;BME280;64701;43.536;1.478;2024-01-30T08:22:30;101045.19;;;11.46;100.00
76011;BME280;64701;43.536;1.478;2024-01-30T08:24:56;101055.16;;;11.52;100.00
76011;BME280;64701;43.536;1.478;2024-01-30T08:27:21;101040.91;;;11.53;100.00
76011;BME280;64701;43.536;1.478;2024-01-30T08:29:46;101041.59;;;11.55;100.00
76011;BME280;64701;43.536;1.478;2024-01-30T08:32:11;101032.31;;;11.59;100.00
76011;BME280;64701;43.536;1.478;2024-01-30T08:34:37;101034.00;;;11.68;100.00
76011;BME280;64701;43.536;1.478;2024-01-30T08:37:02;101037.69;;;11.75;100.00
76011;BME280;64701;43.536;1.478;2024-01-30T08:39:28;101045.53;;;11.85;100.00
76011;BME280;64701;43.536;1.478;2024-01-30T08:41:53;101042.56;;;11.96;100.00
76011;BME280;64701;43.536;1.478;2024-01-30T08:44:18;101047.03;;;11.96;100.00
76011;BME280;64701;43.536;1.478;2024-01-30T08:46:44;101049.88;;;12.02;100.00
76011;BME280;64701;43.536;1.478;2024-01-30T08:49:10;101047.69;;;11.98;100.00
76011;BME280;64701;43.536;1.478;2024-01-30T08:51:35;101058.34;;;12.06;100.00
76011;BME280;64701;43.536;1.478;2024-01-30T08:54:01;101055.66;;;11.98;100.00
76011;BME280;64701;43.536;1.478;2024-01-30T08:56:26;101064.16;;;12.09;100.00
76011;BME280;64701;43.536;1.478;2024-01-30T08:58:51;101054.53;;;12.08;100.00
76011;BME280;64701;43.536;1.478;2024-01-30T09:01:17;101058.50;;;12.12;100.00
76011;BME280;64701;43.536;1.478;2024-01-30T09:03:42;101061.50;;;12.17;100.00
76011;BME280;64701;43.536;1.478;2024-01-30T09:06:10;101062.03;;;12.37;100.00
76011;BME280;64701;43.536;1.478;2024-01-30T09:08:35;101058.03;;;12.41;100.00
76011;BME280;64701;43.536;1.478;2024-01-30T09:11:02;101065.97;;;12.82;100.00
76011;BME280;64701;43.536;1.478;2024-01-30T09:13:27;101071.75;;;13.18;100.00
76011;BME280;64701;43.536;1.478;2024-01-30T09:15:52;101067.06;;;13.12;100.00
76011;BME280;64701;43.536;1.478;2024-01-30T09:18:18;101067.00;;;13.52;100.00
76011;BME280;64701;43.536;1.478;2024-01-30T09:20:43;101072.09;;;13.62;100.00
76011;BME280;64701;43.536;1.478;2024-01-30T09:23:10;101075.53;;;14.01;100.00
76011;BME280;64701;43.536;1.478;2024-01-30T09:25:35;101074.66;;;14.31;100.00
76011;BME280;64701;43.536;1.478;2024-01-30T09:28:01;101077.97;;;14.42;100.00
76011;BME280;64701;43.536;1.478;2024-01-30T09:30:26;101077.47;;;14.61;100.00
76011;BME280;64701;43.536;1.478;2024-01-30T09:32:51;101081.56;;;14.86;100.00
76011;BME280;64701;43.536;1.478;2024-01-30T09:35:16;101079.66;;;14.57;100.00
76011;BME280;64701;43.536;1.478;2024-01-30T09:37:42;101091.94;;;14.44;100.00
76011;BME280;64701;43.536;1.478;2024-01-30T09:40:07;101091.78;;;14.60;100.00
76011;BME280;64701;43.536;1.478;2024-01-30T09:42:33;101096.47;;;14.81;100.00
76011;BME280;64701;43.536;1.478;2024-01-30T09:45:00;101100.91;;;14.88;100.00
76011;BME280;64701;43.536;1.478;2024-01-30T09:47:26;101091.25;;;14.87;99.17
76011;BME280;64701;43.536;1.478;2024-01-30T09:49:51;101105.41;;;15.02;96.62
76011;BME280;64701;43.536;1.478;2024-01-30T09:52:17;101101.91;;;15.02;97.94
76011;BME280;64701;43.536;1.478;2024-01-30T09:54:43;101100.22;;;15.24;96.05
76011;BME280;64701;43.536;1.478;2024-01-30T09:57:10;101084.00;;;15.10;94.58
76011;BME280;64701;43.536;1.478;2024-01-30T09:59:36;101090.47;;;15.31;93.23
76011;BME280;64701;43.536;1.478;2024-01-30T10:02:01;101085.38;;;15.06;93.90
76011;BME280;64701;43.536;1.478;2024-01-30T10:04:29;101087.69;;;15.24;94.34
76011;BME280;64701;43.536;1.478;2024-01-30T10:06:54;101092.09;;;15.17;93.29
76011;BME280;64701;43.536;1.478;2024-01-30T10:09:19;101095.78;;;15.01;93.85
76011;BME280;64701;43.536;1.478;2024-01-30T10:11:44;101104.50;;;14.95;93.62
76011;BME280;64701;43.536;1.478;2024-01-30T10:14:10;101097.44;;;15.17;95.01
76011;BME280;64701;43.536;1.478;2024-01-30T10:16:35;101103.75;;;14.87;95.14
76011;BME280;64701;43.536;1.478;2024-01-30T10:19:00;101097.47;;;14.80;95.06
76011;BME280;64701;43.536;1.478;2024-01-30T10:21:26;101094.13;;;15.00;95.04
76011;BME280;64701;43.536;1.478;2024-01-30T10:23:51;101097.28;;;15.19;93.76
76011;BME280;64701;43.536;1.478;2024-01-30T10:26:16;101088.41;;;15.33;93.56
76011;BME280;64701;43.536;1.478;2024-01-30T10:28:42;101092.19;;;15.38;92.69
76011;BME280;64701;43.536;1.478;2024-01-30T10:31:07;101078.56;;;15.77;92.32
76011;BME280;64701;43.536;1.478;2024-01-30T10:33:33;101085.63;;;16.21;89.94
76011;BME280;64701;43.536;1.478;2024-01-30T10:36:02;101086.00;;;16.39;87.64
76011;BME280;64701;43.536;1.478;2024-01-30T10:38:28;101079.78;;;16.32;86.40
76011;BME280;64701;43.536;1.478;2024-01-30T10:40:55;101072.78;;;16.31;86.81
76011;BME280;64701;43.536;1.478;2024-01-30T10:43:21;101066.97;;;16.70;85.93
76011;BME280;64701;43.536;1.478;2024-01-30T10:45:47;101079.78;;;16.53;84.45
76011;BME280;64701;43.536;1.478;2024-01-30T10:48:14;101067.09;;;16.41;84.86
76011;BME280;64701;43.536;1.478;2024-01-30T10:50:41;101057.34;;;16.76;84.58
76011;BME280;64701;43.536;1.478;2024-01-30T10:53:07;101054.97;;;16.59;83.26
76011;BME280;64701;43.536;1.478;2024-01-30T10:55:33;101056.47;;;16.68;84.27
76011;BME280;64701;43.536;1.478;2024-01-30T10:57:58;101057.69;;;16.94;84.10
76011;BME280;64701;43.536;1.478;2024-01-30T11:00:24;101047.66;;;17.37;82.73
76011;BME280;64701;43.536;1.478;2024-01-30T11:02:51;101053.13;;;16.88;81.27
76011;BME280;64701;43.536;1.478;2024-01-30T11:05:23;101049.00;;;16.85;80.27
76011;BME280;64701;43.536;1.478;2024-01-30T11:07:48;101046.38;;;16.92;81.98
76011;BME280;64701;43.536;1.478;2024-01-30T11:10:14;101049.38;;;16.82;80.76
76011;BME280;64701;43.536;1.478;2024-01-30T11:12:40;101046.47;;;16.77;81.27
76011;BME280;64701;43.536;1.478;2024-01-30T11:17:44;101044.81;;;17.04;81.46
76011;BME280;64701;43.536;1.478;2024-01-30T11:20:30;101043.00;;;17.59;79.44
76011;BME280;64701;43.536;1.478;2024-01-30T11:22:58;101038.81;;;17.84;76.89
76011;BME280;64701;43.536;1.478;2024-01-30T11:25:24;101040.88;;;17.95;75.99
76011;BME280;64701;43.536;1.478;2024-01-30T11:27:53;101037.19;;;18.03;74.32
76011;BME280;64701;43.536;1.478;2024-01-30T11:30:26;101038.81;;;17.90;74.04
76011;BME280;64701;43.536;1.478;2024-01-30T11:33:13;101024.00;;;18.01;73.87
76011;BME280;64701;43.536;1.478;2024-01-30T11:35:38;101033.06;;;18.07;75.14
76011;BME280;64701;43.536;1.478;2024-01-30T11:38:05;101020.94;;;18.11;74.49
76011;BME280;64701;43.536;1.478;2024-01-30T11:40:31;101025.06;;;18.13;73.66
76011;BME280;64701;43.536;1.478;2024-01-30T11:43:00;101013.31;;;18.14;74.11
76011;BME280;64701;43.536;1.478;2024-01-30T11:45:26;101028.16;;;18.30;72.79
76011;BME280;64701;43.536;1.478;2024-01-30T11:47:52;101018.69;;;18.41;70.39
76011;BME280;64701;43.536;1.478;2024-01-30T11:50:17;101011.06;;;18.51;70.24
76011;BME280;64701;43.536;1.478;2024-01-30T11:52:42;101005.09;;;18.55;67.33
76011;BME280;64701;43.536;1.478;2024-01-30T11:55:08;101010.41;;;18.35;69.38
76011;BME280;64701;43.536;1.478;2024-01-30T11:57:34;100997.63;;;18.38;67.93
76011;BME280;64701;43.536;1.478;2024-01-30T12:00:02;101001.16;;;18.45;68.26
76011;BME280;64701;43.536;1.478;2024-01-30T12:02:33;101005.06;;;18.88;67.77
76011;BME280;64701;43.536;1.478;2024-01-30T12:04:58;101000.28;;;18.90;67.22
76011;BME280;64701;43.536;1.478;2024-01-30T12:07:28;101015.56;;;18.96;66.20
76011;BME280;64701;43.536;1.478;2024-01-30T12:09:53;100997.25;;;18.67;67.30
76011;BME280;64701;43.536;1.478;2024-01-30T12:12:22;100991.72;;;19.26;65.87
76011;BME280;64701;43.536;1.478;2024-01-30T12:14:48;100990.19;;;18.79;66.74
76011;BME280;64701;43.536;1.478;2024-01-30T12:17:22;100984.94;;;19.17;65.95
76011;BME280;64701;43.536;1.478;2024-01-30T12:19:48;100986.31;;;19.46;65.65
76011;BME280;64701;43.536;1.478;2024-01-30T12:22:13;100994.88;;;19.16;65.05
76011;BME280;64701;43.536;1.478;2024-01-30T12:24:38;100978.22;;;18.82;67.61
76011;BME280;64701;43.536;1.478;2024-01-30T12:27:03;100985.38;;;19.07;66.74
76011;BME280;64701;43.536;1.478;2024-01-30T12:29:31;100976.22;;;19.28;65.97
76011;BME280;64701;43.536;1.478;2024-01-30T12:31:57;100977.00;;;19.42;64.02
76011;BME280;64701;43.536;1.478;2024-01-30T12:34:22;100975.09;;;20.18;61.83
76011;BME280;64701;43.536;1.478;2024-01-30T12:36:49;100986.63;;;20.50;61.51